Central Sonoma County Latest

27 Stations

15 Minute Data | America/Los_Angeles
as of 4/17/21 2:15 AM PDT
Station Date Time Temp (°F) RH (%) Dew Pt (°F) Wind Spd (mph) Wind Dir (°) Wind Gust (mph) Latest Rain (In) Daily Rain (In) Daily Min Temp (°F) Daily Max Temp (°F)
Healdsburg-South (Sodini) 4/17/21 0215 40.1   1.2 96   0 39.1   1.3 0.0 N | 0 0.0   0.0 0.00 0.00 39.7   1.1 41.4   0.8
Windsor-NW (Ranch 8) 4/17/21 0215 43.8   1.7 87   0 40.2   1.7 0.0 N | 0 0.0   0.0 0.00 0.00 43.6   1.6 44.8   1.6
Windsor-East (Ranch 16) 4/17/21 0215 40.5   2.4 95   1 39.2   2.7 0.2 S | 179 1.6   0.7 0.00 0.00 39.8   2.2 41.5   1.1
Mark West-North (Ranch 14) 4/17/21 0215 41.4   1.6 94   0 39.9   1.7 0.0 NNE | 17 0.9   0.9 0.00 0.00 40.8   1.5 45.5   1.9
Windsor-SE (Silk Rd) 4/17/21 0215 40.4   1.6 98   0 39.8   1.6 0.1 N | 351 0.9   0.9 0.00 0.00 39.8   1.7 41.0   1.5
Fulton-NW (Ranch 5) 4/17/21 0215 42.0   2.6 97   1 41.3   2.9 0.1 NNE | 20 0.9   0.4 0.00 0.00 41.2   2.4 43.2   0.9
Windsor-South (Laughlin Rd) 4/17/21 0215 42.5   1.0 - - - - - 0.00 0.00 42.2   1.6 44.5   1.8
Fulton-SE (Barnes Rd) 4/17/21 0215 46.0   5.3 92   2 44.0   4.7 2.5 ESE | 114 4.8   4.1 0.00 0.00 44.6   4.2 46.6   3.2
Fulton-SW (Ranch 21) 4/17/21 0215 42.1   2.0 95   1 40.7   1.6 1.4 NNE | 22 2.0   0.4 0.00 0.00 41.9   2.1 43.8   1.7
Santa Rosa-NW (Goldfields) 4/17/21 0215 40.9   1.8 96   0 39.8   1.9 0.6 N | 7 2.1   0.3 0.00 0.00 40.8   1.9 43.7   2.1
NW Santa Rosa (Piner Road) 4/17/21 0215 39.8   1.7 97   0 39.0   1.8 0.0 N | 0 0.0   0.6 0.00 0.00 39.5   1.8 42.2   2.6
River Rd South (Denner Ranch) 4/17/21 0215 39.6   1.7 100   1 39.5   1.9 2.0 N | 352 3.1   6.1 0.00 0.00 38.9   1.9 40.6   1.0
West Santa Rosa (Hawk's Roost) 4/17/21 0215 40.7   1.6 98   0 40.2   1.6 0.0 N | 0 0.0   0.4 0.00 0.00 40.6   1.9 42.6   2.3
Guerneville Rd (Prokopakis) 4/17/21 0215 39.6   2.7 99   1 39.2   3.0 - - - 0.00 0.00 39.0   2.4 40.2   2.0
Guerneville Rd West (Balletto) 4/17/21 0215 39.7   1.1 95   1 38.4   1.4 0.0 N | 0 0.0   1.6 0.00 0.00 39.6   1.2 41.5   2.1
Guerneville Rd East (Rich Ranch) 4/17/21 0215 42.5   4.5 97   1 41.8   4.9 - - - - - 42.2   4.2 43.6   2.0
Occidental Rd (Sebastopol) 4/17/21 0215 39.8   1.8 100   0 39.8   1.8 0.1 ENE | 70 0.9   0.2 0.00 0.00 39.6   2.2 41.2   0.5
Lower Westside Rd (Ranch 12) 4/17/21 0215 40.7   2.6 96   3 39.6   3.3 0.0 WNW | 295 0.7   0.0 0.00 0.00 40.5   2.4 41.5   2.7
Guerneville (Laughlin Rd) 4/17/21 0215 40.9   4.1 96   0 39.9   4.0 0.0 N | 0 0.0   0.0 0.00 0.00 39.5   2.8 41.4   3.3
Korbel (Winery) 4/17/21 0215 43.4   3.6 97   1 42.8   3.8 0.2 ESE | 119 1.1   0.5 0.00 0.00 42.5   2.8 43.6   2.6
Forestville (Shone Farms) 4/17/21 0215 42.1   2.5 96   2 41.0   3.0 1.5 N | 6 2.3   0.5 0.00 0.00 40.2   1.7 43.6   1.4
Forestville-NE (Ranch 30) 4/17/21 0215 40.5   2.2 96   0 39.3   2.0 0.0 N | 0 0.0   1.1 0.00 0.00 40.0   2.2 41.9   2.5
Graton-West (Dutton Ranch) 4/17/21 0215 40.8   4.5 100   0 40.8   4.5 0.6 SSE | 154 2.0   2.0 0.00 0.00 40.1   4.0 41.4   2.7
Graton-South (Mill Station Rd) 4/17/21 0215 36.7   0.5 96   0 35.6   0.5 0.7 ESE | 116 1.9   1.9 0.00 0.00 36.1   0.8 39.2   0.9
Sexton Valley (Jacqueline's Blk) 4/17/21 0215 37.5   1.4 96   0 36.4   1.3 0.1 SE | 141 3.5   2.5 0.00 0.00 37.0   1.1 38.9   1.4
Sebastopol Hills (Burnside Rd) 4/17/21 0215 43.1   2.1 97   0 42.4   2.0 0.0 N | 0 0.0   1.4 0.00 0.00 43.0   2.7 44.1   2.1
Seaview/Fort Ross (Hirsch) 4/17/21 0215 52.5   2.1 46   15 32.3   5.0 3.2 NNE | 12 5.5   2.6 0.00 0.00 51.8   5.9 53.2   2.5
Max     52.5 100 44.0 3.2 - 5.5 0.00 0.00 51.8 53.2
Avg     41.5 94 39.7 0.6 - 1.4 0.00 - - -
Min     36.7 46 32.3 0.0 - 0.0 0.00 0.00 36.1 38.9